createdAt,value
2019-02-20T16:33:41.396Z,2.65
2019-02-20T16:36:08.187Z,2.37
2019-02-20T16:38:34.966Z,2.62
2019-02-20T16:41:01.738Z,2.60
2019-02-20T16:43:28.395Z,2.50
2019-02-20T16:45:55.269Z,2.80
2019-02-20T16:48:22.132Z,2.58
2019-02-20T16:50:48.875Z,2.80
2019-02-20T16:53:15.627Z,2.40
2019-02-20T16:55:42.332Z,2.30
2019-02-20T16:58:09.080Z,2.67
2019-02-20T17:00:36.257Z,2.45
2019-02-20T17:03:05.158Z,2.67
2019-02-20T17:05:31.710Z,3.05
2019-02-20T17:07:59.167Z,2.40
2019-02-20T17:10:25.866Z,2.40
2019-02-20T17:12:52.793Z,2.40
2019-02-20T17:15:19.506Z,2.70
2019-02-20T17:17:46.658Z,2.20
2019-02-20T17:20:17.709Z,2.40
2019-02-20T17:22:44.696Z,2.62
2019-02-20T17:25:14.099Z,2.40
2019-02-20T17:27:41.454Z,2.60
2019-02-20T17:30:13.717Z,2.58
2019-02-20T17:32:40.834Z,2.47
2019-02-20T17:35:09.133Z,2.30
2019-02-20T17:37:35.880Z,2.50
2019-02-20T17:40:04.081Z,2.50
2019-02-20T17:42:31.159Z,2.30
2019-02-20T17:44:57.860Z,2.58
2019-02-20T17:47:25.941Z,2.35
2019-02-20T17:49:52.689Z,2.50
2019-02-20T17:52:19.919Z,2.58
2019-02-20T17:54:47.063Z,2.50
2019-02-20T17:57:15.032Z,2.20
2019-02-20T17:59:41.689Z,2.60
2019-02-20T18:02:08.432Z,2.58
2019-02-20T18:04:35.995Z,2.33
2019-02-20T18:07:02.848Z,2.30
2019-02-20T18:09:29.751Z,2.62
2019-02-20T18:11:56.707Z,2.50
2019-02-20T18:14:23.448Z,2.33
2019-02-20T18:16:50.732Z,2.55
2019-02-20T18:19:17.441Z,2.52
2019-02-20T18:21:44.593Z,2.40
2019-02-20T18:24:11.338Z,2.70
2019-02-20T18:26:38.058Z,2.33
2019-02-20T18:29:05.174Z,2.40
2019-02-20T18:31:32.161Z,2.47
2019-02-20T18:33:59.681Z,2.60
2019-02-20T18:36:26.793Z,2.60
2019-02-20T18:38:54.007Z,2.62
2019-02-20T18:41:20.908Z,2.47
2019-02-20T18:43:48.135Z,2.27
2019-02-20T18:46:14.875Z,2.62
2019-02-20T18:48:41.942Z,2.70
2019-02-20T18:51:08.627Z,2.55
2019-02-20T18:53:35.754Z,2.70
2019-02-20T18:56:02.675Z,2.62
2019-02-20T18:58:33.915Z,2.90
2019-02-20T19:00:57.932Z,2.58
2019-02-20T19:03:24.652Z,2.67
2019-02-20T19:05:51.349Z,2.47
2019-02-20T19:08:42.973Z,2.50
2019-02-20T19:11:13.522Z,2.50
2019-02-20T19:13:49.838Z,2.50
2019-02-20T19:16:49.223Z,2.70
2019-02-20T19:19:20.537Z,2.65
2019-02-20T19:22:03.288Z,2.42
2019-02-20T19:24:46.211Z,2.47
2019-02-20T19:27:16.851Z,2.80
2019-02-20T19:30:03.094Z,2.70
2019-02-20T19:32:48.619Z,2.80
2019-02-20T19:35:24.950Z,2.90
2019-02-20T19:38:14.128Z,2.80
2019-02-20T19:40:47.684Z,2.83
2019-02-20T19:43:27.301Z,3.00
2019-02-20T19:46:30.207Z,2.98
2019-02-20T19:49:06.129Z,3.25
2019-02-20T19:51:37.292Z,2.90
2019-02-20T19:54:15.012Z,3.00
2019-02-20T19:56:45.553Z,3.00
2019-02-20T19:59:19.014Z,3.27
2019-02-20T20:01:58.843Z,2.65
2019-02-20T20:05:04.897Z,2.80
2019-02-20T20:08:09.518Z,3.02
2019-02-20T20:10:55.468Z,2.90
2019-02-20T20:13:30.204Z,3.00
2019-02-20T20:16:18.268Z,3.17
2019-02-20T20:18:48.794Z,3.08
2019-02-20T20:21:25.134Z,3.25
2019-02-20T20:24:04.540Z,3.05
2019-02-20T20:26:40.816Z,3.10
2019-02-20T20:29:27.140Z,3.08
2019-02-20T20:32:06.700Z,3.20
2019-02-20T20:34:42.800Z,2.98
2019-02-20T20:37:25.712Z,3.22
2019-02-20T20:39:58.999Z,3.10
2019-02-20T20:42:52.557Z,3.12
2019-02-20T20:45:29.220Z,3.22
2019-02-20T20:48:14.965Z,2.90
2019-02-20T20:51:02.614Z,3.12
2019-02-20T20:53:39.228Z,2.95
2019-02-20T20:56:29.475Z,3.17
2019-02-20T20:59:02.816Z,3.30
2019-02-20T21:01:49.116Z,3.20
2019-02-20T21:04:31.715Z,3.60
2019-02-20T21:07:26.827Z,3.35
2019-02-20T21:09:57.398Z,3.20
2019-02-20T21:12:46.365Z,3.35
2019-02-20T21:15:29.744Z,3.45
2019-02-20T21:18:15.155Z,3.25
2019-02-20T21:20:58.274Z,3.25
2019-02-20T21:23:35.054Z,3.35
2019-02-20T21:26:09.074Z,3.12
2019-02-20T21:28:53.928Z,3.33
2019-02-20T21:31:35.337Z,3.20
2019-02-20T21:34:24.323Z,3.20
2019-02-20T21:36:54.944Z,3.42
2019-02-20T21:39:31.235Z,3.30
2019-02-20T21:42:10.815Z,3.00
2019-02-20T21:44:53.649Z,3.30
2019-02-20T21:47:36.243Z,3.17
2019-02-20T21:50:43.439Z,3.40
2019-02-20T21:53:20.072Z,3.40
2019-02-20T21:56:05.287Z,3.50
2019-02-20T22:01:13.284Z,3.40
2019-02-20T22:04:02.263Z,3.50
2019-02-20T22:06:33.248Z,3.25
2019-02-20T22:09:07.817Z,3.42
2019-02-20T22:12:02.867Z,3.65
2019-02-20T22:14:33.501Z,3.45
2019-02-20T22:17:16.608Z,3.50
2019-02-20T22:20:21.014Z,3.30
2019-02-20T22:23:00.545Z,3.50
2019-02-20T22:25:52.811Z,3.70
2019-02-20T22:28:38.014Z,3.42
2019-02-20T22:31:20.935Z,3.67
2019-02-20T22:34:11.175Z,3.67
2019-02-20T22:36:44.707Z,4.00
2019-02-20T22:39:32.097Z,3.85
2019-02-20T22:42:08.540Z,3.60
2019-02-20T22:44:45.319Z,3.98
2019-02-20T22:47:21.787Z,3.85
2019-02-20T22:50:08.949Z,3.90
2019-02-20T22:52:39.571Z,3.77
2019-02-20T22:55:20.351Z,3.98
2019-02-20T22:58:06.288Z,4.00
2019-02-20T23:01:03.087Z,4.00
2019-02-20T23:03:46.047Z,4.30
2019-02-20T23:06:22.531Z,3.72
2019-02-20T23:08:59.557Z,3.90
2019-02-20T23:11:47.064Z,4.05
2019-02-20T23:14:27.111Z,3.95
2019-02-20T23:16:53.959Z,4.08
2019-02-20T23:19:20.920Z,3.70
2019-02-20T23:21:49.458Z,3.98
2019-02-20T23:24:16.620Z,4.42
2019-02-20T23:26:43.531Z,3.90
2019-02-20T23:29:10.279Z,4.15
2019-02-20T23:31:37.524Z,4.15
2019-02-20T23:34:05.354Z,3.87
2019-02-20T23:36:33.151Z,3.85
2019-02-20T23:39:00.086Z,3.75
2019-02-20T23:41:26.847Z,4.50
2019-02-20T23:43:53.643Z,4.33
2019-02-20T23:46:20.559Z,4.47
2019-02-20T23:48:47.831Z,3.95
2019-02-20T23:51:14.974Z,3.83
2019-02-20T23:53:42.550Z,4.33
2019-02-20T23:56:09.461Z,4.10
2019-02-20T23:58:36.248Z,4.12
